Upland, CA (91784)

12:21 PM PDT on August 30, 2015 (GMT -0700)
Looking Glass Estates | | Change Station
CLOSE
Current Station
Personal Weather Station
Location: Upland, CA
Elevation: 1774 ft
Nearby Weather Stations

Elev 1774 ft 34.14 °N, 117.67 °W | Updated 1 minute ago

Clear
Clear
88.0 °F
Feels Like 85 °F
N
4.6
Wind Variable Wind from SW
Gusts 4.6 mph

Today
High -- | Low -- °F
--% Chance of Precip.
Yesterday
High -- | Low -- °F
Precip. -- in
6:22 AM 7:19 PM
Full, 98% visible
Pressure 29.86 in
Visibility 10.0 miles
Clouds Scattered Clouds 20000 ft
Heat Index 85 °F
Dew Point 51 °F
Humidity 28%
Rainfall 0.00 in
Snow Depth Not available.
UV 8 out of 12
Pollen 6.00 out of 12
Air Quality Not available.
Flu Activity Not available.
METAR KONT 301853Z COR 25005KT 10SM SCT200 32/14 A2991 RMK AO2 SLP109 T03220144
Pressure 29.86 in
Visibility 10.0 miles
Clouds Scattered Clouds 20000 ft
Heat Index 85 °F
Dew Point 51 °F
Humidity 28%
Rainfall 0.00 in
Snow Depth Not available.
UV 8 out of 12
Pollen 6.00 out of 12
Air Quality Not available.
Flu Activity Not available.
METAR KONT 301853Z COR 25005KT 10SM SCT200 32/14 A2991 RMK AO2 SLP109 T03220144

10-Day Weather Forecast

×

Almanac

Astronomy

Aug. 30, 2015 Rise Set
Actual Time
Civil Twilight
Nautical Twilight
Astronomical Twilight
Moon
Length of Visible Light
Length of Day
Tomorrow will be .
, % of the Moon is Illuminated

Today's Extremes

State Highs State Lows

Community

WunderPhotos

Upload Photos

1,851,038 photos uploaded!

WunderBlogs® & News

Nearby

Air Quality

  Air Quality AQ Index Pollutant
Not available.

Snow Depth

Station Depth Elevation

Earthquake Activity

City Distance Mag. Time & Date
Minimum magnitude displayed is 2.5.

Coastal Water Temperatures

Place Temperature

Stations

Nearby Weather Stations

Station Location Temp. Windchill Dew Point Humidity Wind Precip. Elev Updated Type